sensor_id;sensor_type;location;lat;lon;timestamp;pressure;altitude;pressure_sealevel;temperature;humidity
10638;BME280;47007;49.252;8.904;2022-08-03T00:01:29;99837.28;;;19.62;100.00
10638;BME280;47007;49.252;8.904;2022-08-03T00:03:56;99855.88;;;19.81;100.00
10638;BME280;47007;49.252;8.904;2022-08-03T00:06:23;99845.22;;;19.86;100.00
10638;BME280;47007;49.252;8.904;2022-08-03T00:08:49;99849.53;;;19.87;100.00
10638;BME280;47007;49.252;8.904;2022-08-03T00:11:16;99824.00;;;19.72;100.00
10638;BME280;47007;49.252;8.904;2022-08-03T00:13:43;99846.38;;;19.90;100.00
10638;BME280;47007;49.252;8.904;2022-08-03T00:16:10;99829.22;;;19.79;100.00
10638;BME280;47007;49.252;8.904;2022-08-03T00:18:37;99854.09;;;19.86;100.00
10638;BME280;47007;49.252;8.904;2022-08-03T00:21:04;99846.50;;;19.83;100.00
10638;BME280;47007;49.252;8.904;2022-08-03T00:23:31;99846.75;;;19.82;100.00
10638;BME280;47007;49.252;8.904;2022-08-03T00:26:19;99838.03;;;19.75;100.00
10638;BME280;47007;49.252;8.904;2022-08-03T00:28:46;99826.09;;;19.70;100.00
10638;BME280;47007;49.252;8.904;2022-08-03T00:31:12;99821.97;;;19.63;100.00
10638;BME280;47007;49.252;8.904;2022-08-03T00:33:39;99839.66;;;19.76;100.00
10638;BME280;47007;49.252;8.904;2022-08-03T00:36:24;99831.81;;;19.46;100.00
10638;BME280;47007;49.252;8.904;2022-08-03T00:38:51;99813.03;;;19.06;100.00
10638;BME280;47007;49.252;8.904;2022-08-03T00:41:18;99826.00;;;19.09;100.00
10638;BME280;47007;49.252;8.904;2022-08-03T00:43:45;99831.69;;;19.24;100.00
10638;BME280;47007;49.252;8.904;2022-08-03T00:46:13;99816.41;;;19.13;100.00
10638;BME280;47007;49.252;8.904;2022-08-03T00:48:50;99821.41;;;19.21;100.00
10638;BME280;47007;49.252;8.904;2022-08-03T00:51:18;99776.28;;;18.94;100.00
10638;BME280;47007;49.252;8.904;2022-08-03T00:53:46;99830.97;;;19.28;100.00
10638;BME280;47007;49.252;8.904;2022-08-03T00:56:14;99830.47;;;19.31;100.00
10638;BME280;47007;49.252;8.904;2022-08-03T00:58:42;99832.44;;;19.36;100.00
10638;BME280;47007;49.252;8.904;2022-08-03T01:01:10;99800.59;;;19.28;100.00
10638;BME280;47007;49.252;8.904;2022-08-03T01:03:38;99832.34;;;19.31;100.00
10638;BME280;47007;49.252;8.904;2022-08-03T01:06:40;99840.41;;;19.31;100.00
10638;BME280;47007;49.252;8.904;2022-08-03T01:11:54;99840.50;;;19.36;100.00
10638;BME280;47007;49.252;8.904;2022-08-03T01:17:32;99828.66;;;19.20;100.00
10638;BME280;47007;49.252;8.904;2022-08-03T01:20:09;99808.06;;;18.97;100.00
10638;BME280;47007;49.252;8.904;2022-08-03T01:23:05;99822.53;;;18.96;100.00
10638;BME280;47007;49.252;8.904;2022-08-03T01:26:02;99818.91;;;19.02;100.00
10638;BME280;47007;49.252;8.904;2022-08-03T01:31:39;99820.94;;;18.72;100.00
10638;BME280;47007;49.252;8.904;2022-08-03T01:34:36;99807.41;;;18.67;100.00
10638;BME280;47007;49.252;8.904;2022-08-03T01:37:06;99815.78;;;18.82;100.00
10638;BME280;47007;49.252;8.904;2022-08-03T01:39:35;99800.97;;;18.80;100.00
10638;BME280;47007;49.252;8.904;2022-08-03T01:42:07;99794.19;;;18.89;100.00
10638;BME280;47007;49.252;8.904;2022-08-03T01:44:39;99790.22;;;18.91;100.00
10638;BME280;47007;49.252;8.904;2022-08-03T01:47:07;99810.13;;;19.07;100.00
10638;BME280;47007;49.252;8.904;2022-08-03T01:49:39;99800.63;;;18.76;100.00
10638;BME280;47007;49.252;8.904;2022-08-03T01:52:10;99771.97;;;18.42;100.00
10638;BME280;47007;49.252;8.904;2022-08-03T01:54:43;99811.50;;;18.46;100.00
10638;BME280;47007;49.252;8.904;2022-08-03T01:57:12;99815.56;;;18.49;100.00
10638;BME280;47007;49.252;8.904;2022-08-03T01:59:40;99794.69;;;18.51;100.00
10638;BME280;47007;49.252;8.904;2022-08-03T02:02:11;99789.31;;;18.51;100.00
10638;BME280;47007;49.252;8.904;2022-08-03T02:04:59;99799.94;;;18.69;100.00
10638;BME280;47007;49.252;8.904;2022-08-03T02:07:28;99806.00;;;18.76;100.00
10638;BME280;47007;49.252;8.904;2022-08-03T02:09:57;99804.81;;;18.84;100.00
10638;BME280;47007;49.252;8.904;2022-08-03T02:12:25;99797.22;;;18.81;100.00
10638;BME280;47007;49.252;8.904;2022-08-03T02:14:54;99764.72;;;18.54;100.00
10638;BME280;47007;49.252;8.904;2022-08-03T02:17:24;99779.19;;;18.53;100.00
10638;BME280;47007;49.252;8.904;2022-08-03T02:20:07;99772.44;;;18.15;100.00
10638;BME280;47007;49.252;8.904;2022-08-03T02:22:39;99775.78;;;17.87;100.00
10638;BME280;47007;49.252;8.904;2022-08-03T02:25:08;99813.81;;;18.19;100.00
10638;BME280;47007;49.252;8.904;2022-08-03T02:27:38;99810.91;;;18.21;100.00
10638;BME280;47007;49.252;8.904;2022-08-03T02:30:10;99807.19;;;18.22;100.00
10638;BME280;47007;49.252;8.904;2022-08-03T02:32:39;99817.69;;;18.35;100.00
10638;BME280;47007;49.252;8.904;2022-08-03T02:35:10;99776.03;;;18.21;100.00
10638;BME280;47007;49.252;8.904;2022-08-03T02:37:43;99815.56;;;18.49;100.00
10638;BME280;47007;49.252;8.904;2022-08-03T02:40:17;99754.47;;;18.16;100.00
10638;BME280;47007;49.252;8.904;2022-08-03T02:42:45;99811.72;;;18.56;100.00
10638;BME280;47007;49.252;8.904;2022-08-03T02:45:13;99761.34;;;18.23;100.00
10638;BME280;47007;49.252;8.904;2022-08-03T02:47:42;99810.47;;;18.59;100.00
10638;BME280;47007;49.252;8.904;2022-08-03T02:50:21;99777.66;;;18.45;100.00
10638;BME280;47007;49.252;8.904;2022-08-03T02:52:51;99803.22;;;18.59;100.00
10638;BME280;47007;49.252;8.904;2022-08-03T02:55:19;99806.25;;;18.63;100.00
10638;BME280;47007;49.252;8.904;2022-08-03T02:57:47;99793.16;;;18.55;100.00
10638;BME280;47007;49.252;8.904;2022-08-03T03:00:15;99810.91;;;18.33;100.00
10638;BME280;47007;49.252;8.904;2022-08-03T03:02:56;99805.31;;;18.22;100.00
10638;BME280;47007;49.252;8.904;2022-08-03T03:05:24;99769.38;;;17.77;100.00
10638;BME280;47007;49.252;8.904;2022-08-03T03:08:13;99806.13;;;18.11;100.00
10638;BME280;47007;49.252;8.904;2022-08-03T03:10:46;99804.13;;;18.18;100.00
10638;BME280;47007;49.252;8.904;2022-08-03T03:13:19;99792.03;;;18.27;100.00
10638;BME280;47007;49.252;8.904;2022-08-03T03:15:48;99804.97;;;18.30;100.00
10638;BME280;47007;49.252;8.904;2022-08-03T03:18:16;99748.84;;;17.82;100.00
10638;BME280;47007;49.252;8.904;2022-08-03T03:20:48;99790.63;;;18.02;100.00
10638;BME280;47007;49.252;8.904;2022-08-03T03:23:16;99806.25;;;18.05;100.00
10638;BME280;47007;49.252;8.904;2022-08-03T03:25:45;99807.31;;;18.15;100.00
10638;BME280;47007;49.252;8.904;2022-08-03T03:28:12;99789.59;;;18.14;100.00
10638;BME280;47007;49.252;8.904;2022-08-03T03:30:39;99773.03;;;18.17;100.00
10638;BME280;47007;49.252;8.904;2022-08-03T03:33:06;99798.22;;;18.40;100.00
10638;BME280;47007;49.252;8.904;2022-08-03T03:35:33;99782.81;;;18.35;100.00
10638;BME280;47007;49.252;8.904;2022-08-03T03:38:05;99784.81;;;18.28;100.00
10638;BME280;47007;49.252;8.904;2022-08-03T03:40:34;99806.81;;;18.07;100.00
10638;BME280;47007;49.252;8.904;2022-08-03T03:43:02;99811.47;;;17.76;100.00
10638;BME280;47007;49.252;8.904;2022-08-03T03:45:29;99818.69;;;17.57;100.00
10638;BME280;47007;49.252;8.904;2022-08-03T03:47:58;99787.03;;;17.54;100.00
10638;BME280;47007;49.252;8.904;2022-08-03T03:50:26;99810.50;;;17.71;100.00
10638;BME280;47007;49.252;8.904;2022-08-03T03:52:53;99778.63;;;17.63;100.00
10638;BME280;47007;49.252;8.904;2022-08-03T03:55:20;99807.16;;;17.87;100.00
10638;BME280;47007;49.252;8.904;2022-08-03T03:57:46;99803.78;;;17.91;100.00
10638;BME280;47007;49.252;8.904;2022-08-03T04:00:14;99802.03;;;17.97;100.00
10638;BME280;47007;49.252;8.904;2022-08-03T04:02:42;99779.16;;;17.83;100.00
10638;BME280;47007;49.252;8.904;2022-08-03T04:05:09;99768.09;;;17.79;100.00
10638;BME280;47007;49.252;8.904;2022-08-03T04:16:46;99800.03;;;17.81;100.00
10638;BME280;47007;49.252;8.904;2022-08-03T04:19:18;99799.69;;;17.77;100.00
10638;BME280;47007;49.252;8.904;2022-08-03T04:21:52;99822.06;;;17.83;100.00
10638;BME280;47007;49.252;8.904;2022-08-03T04:24:25;99769.31;;;17.53;100.00
10638;BME280;47007;49.252;8.904;2022-08-03T04:26:53;99782.78;;;17.47;100.00
10638;BME280;47007;49.252;8.904;2022-08-03T04:29:21;99801.91;;;17.50;100.00
10638;BME280;47007;49.252;8.904;2022-08-03T04:31:49;99748.81;;;17.17;100.00
10638;BME280;47007;49.252;8.904;2022-08-03T04:34:17;99797.25;;;17.57;100.00
10638;BME280;47007;49.252;8.904;2022-08-03T04:36:47;99799.13;;;17.57;100.00
10638;BME280;47007;49.252;8.904;2022-08-03T04:39:19;99779.88;;;17.48;100.00
10638;BME280;47007;49.252;8.904;2022-08-03T04:41:51;99825.09;;;17.75;100.00
10638;BME280;47007;49.252;8.904;2022-08-03T04:44:39;99818.25;;;17.90;100.00
10638;BME280;47007;49.252;8.904;2022-08-03T04:47:07;99810.53;;;17.94;100.00
10638;BME280;47007;49.252;8.904;2022-08-03T04:49:37;99809.38;;;17.78;100.00
10638;BME280;47007;49.252;8.904;2022-08-03T04:52:06;99819.03;;;17.68;100.00
10638;BME280;47007;49.252;8.904;2022-08-03T04:54:44;99794.94;;;17.61;100.00
10638;BME280;47007;49.252;8.904;2022-08-03T04:57:17;99816.22;;;17.74;100.00
10638;BME280;47007;49.252;8.904;2022-08-03T04:59:52;99799.78;;;17.71;100.00
10638;BME280;47007;49.252;8.904;2022-08-03T05:02:30;99806.47;;;17.91;100.00
10638;BME280;47007;49.252;8.904;2022-08-03T05:04:57;99766.19;;;17.68;100.00
10638;BME280;47007;49.252;8.904;2022-08-03T05:07:24;99792.25;;;17.91;100.00
10638;BME280;47007;49.252;8.904;2022-08-03T05:09:51;99725.66;;;17.65;100.00
10638;BME280;47007;49.252;8.904;2022-08-03T05:12:28;99803.56;;;18.05;100.00
10638;BME280;47007;49.252;8.904;2022-08-03T05:14:59;99837.97;;;18.08;100.00
10638;BME280;47007;49.252;8.904;2022-08-03T05:17:26;99836.31;;;17.95;100.00
10638;BME280;47007;49.252;8.904;2022-08-03T05:19:53;99826.88;;;17.92;100.00
10638;BME280;47007;49.252;8.904;2022-08-03T05:22:21;99839.50;;;18.04;100.00
10638;BME280;47007;49.252;8.904;2022-08-03T05:24:47;99833.63;;;18.07;100.00
10638;BME280;47007;49.252;8.904;2022-08-03T05:27:14;99841.25;;;18.33;100.00
10638;BME280;47007;49.252;8.904;2022-08-03T05:29:48;99838.09;;;18.71;100.00
10638;BME280;47007;49.252;8.904;2022-08-03T05:32:16;99839.75;;;19.24;100.00
10638;BME280;47007;49.252;8.904;2022-08-03T05:34:43;99849.13;;;19.50;100.00
10638;BME280;47007;49.252;8.904;2022-08-03T05:37:10;99823.66;;;19.52;100.00
10638;BME280;47007;49.252;8.904;2022-08-03T05:39:37;99838.03;;;19.75;100.00
10638;BME280;47007;49.252;8.904;2022-08-03T05:42:04;99819.28;;;19.80;100.00
10638;BME280;47007;49.252;8.904;2022-08-03T05:44:30;99840.09;;;20.01;100.00
10638;BME280;47007;49.252;8.904;2022-08-03T05:46:57;99841.78;;;20.07;100.00
10638;BME280;47007;49.252;8.904;2022-08-03T05:49:24;99745.22;;;19.44;100.00
10638;BME280;47007;49.252;8.904;2022-08-03T05:51:51;99840.22;;;19.94;100.00
10638;BME280;47007;49.252;8.904;2022-08-03T05:54:38;99804.53;;;19.65;100.00
10638;BME280;47007;49.252;8.904;2022-08-03T05:57:22;99803.94;;;19.63;100.00
10638;BME280;47007;49.252;8.904;2022-08-03T05:59:49;99823.75;;;19.74;100.00
10638;BME280;47007;49.252;8.904;2022-08-03T06:02:25;99808.44;;;19.75;100.00
10638;BME280;47007;49.252;8.904;2022-08-03T06:04:53;99841.22;;;20.05;100.00
10638;BME280;47007;49.252;8.904;2022-08-03T06:07:20;99807.81;;;20.01;100.00
10638;BME280;47007;49.252;8.904;2022-08-03T06:09:46;99832.25;;;20.33;100.00
10638;BME280;47007;49.252;8.904;2022-08-03T06:12:33;99824.34;;;20.43;100.00
10638;BME280;47007;49.252;8.904;2022-08-03T06:15:03;99826.53;;;20.63;100.00
10638;BME280;47007;49.252;8.904;2022-08-03T06:17:33;99814.72;;;20.69;100.00
10638;BME280;47007;49.252;8.904;2022-08-03T06:20:04;99837.50;;;21.00;100.00
10638;BME280;47007;49.252;8.904;2022-08-03T06:22:31;99826.97;;;21.20;100.00
10638;BME280;47007;49.252;8.904;2022-08-03T06:24:58;99828.06;;;21.46;100.00
10638;BME280;47007;49.252;8.904;2022-08-03T06:27:30;99823.44;;;21.68;100.00
10638;BME280;47007;49.252;8.904;2022-08-03T06:30:03;99828.56;;;21.97;100.00
10638;BME280;47007;49.252;8.904;2022-08-03T06:32:37;99808.13;;;22.06;100.00
10638;BME280;47007;49.252;8.904;2022-08-03T06:35:05;99818.88;;;22.38;100.00
10638;BME280;47007;49.252;8.904;2022-08-03T06:37:49;99822.28;;;22.65;100.00
10638;BME280;47007;49.252;8.904;2022-08-03T06:40:20;99820.81;;;22.84;100.00
10638;BME280;47007;49.252;8.904;2022-08-03T06:42:55;99729.81;;;22.48;100.00
10638;BME280;47007;49.252;8.904;2022-08-03T06:45:22;99822.56;;;23.26;100.00
10638;BME280;47007;49.252;8.904;2022-08-03T06:47:59;99827.78;;;23.48;100.00
10638;BME280;47007;49.252;8.904;2022-08-03T06:50:27;99811.31;;;23.59;100.00
10638;BME280;47007;49.252;8.904;2022-08-03T06:52:54;99826.75;;;23.89;100.00
10638;BME280;47007;49.252;8.904;2022-08-03T06:55:21;99833.50;;;24.12;100.00
10638;BME280;47007;49.252;8.904;2022-08-03T06:57:47;99829.50;;;24.35;100.00
10638;BME280;47007;49.252;8.904;2022-08-03T07:00:14;99826.47;;;24.57;97.76
10638;BME280;47007;49.252;8.904;2022-08-03T07:02:41;99827.19;;;24.83;95.35
10638;BME280;47007;49.252;8.904;2022-08-03T07:05:09;99821.16;;;25.06;88.69
10638;BME280;47007;49.252;8.904;2022-08-03T07:07:36;99825.41;;;25.22;88.52
10638;BME280;47007;49.252;8.904;2022-08-03T07:10:04;99819.91;;;25.37;86.90
10638;BME280;47007;49.252;8.904;2022-08-03T07:12:31;99801.13;;;25.46;83.59
10638;BME280;47007;49.252;8.904;2022-08-03T07:15:00;99823.00;;;25.65;83.19
10638;BME280;47007;49.252;8.904;2022-08-03T07:17:32;99794.78;;;25.66;80.43
10638;BME280;47007;49.252;8.904;2022-08-03T07:20:02;99801.47;;;25.79;82.01
10638;BME280;47007;49.252;8.904;2022-08-03T07:22:29;99820.72;;;26.11;78.18
10638;BME280;47007;49.252;8.904;2022-08-03T07:24:56;99815.16;;;26.26;79.72
10638;BME280;47007;49.252;8.904;2022-08-03T07:27:23;99795.16;;;26.46;75.81
10638;BME280;47007;49.252;8.904;2022-08-03T07:29:52;99811.00;;;26.87;73.05
10638;BME280;47007;49.252;8.904;2022-08-03T07:32:19;99801.13;;;26.96;74.75
10638;BME280;47007;49.252;8.904;2022-08-03T07:34:46;99816.19;;;27.31;72.48
10638;BME280;47007;49.252;8.904;2022-08-03T07:37:13;99812.22;;;27.61;69.58
10638;BME280;47007;49.252;8.904;2022-08-03T07:39:39;99803.00;;;27.75;70.43
10638;BME280;47007;49.252;8.904;2022-08-03T07:42:06;99804.91;;;27.94;67.99
10638;BME280;47007;49.252;8.904;2022-08-03T07:44:33;99813.38;;;28.24;68.21
10638;BME280;47007;49.252;8.904;2022-08-03T07:46:59;99800.47;;;28.44;64.65
10638;BME280;47007;49.252;8.904;2022-08-03T07:49:29;99804.00;;;28.72;63.65
10638;BME280;47007;49.252;8.904;2022-08-03T07:51:56;99804.84;;;29.00;62.02
10638;BME280;47007;49.252;8.904;2022-08-03T07:54:42;99803.41;;;29.16;60.26
10638;BME280;47007;49.252;8.904;2022-08-03T07:57:09;99766.97;;;28.84;59.84
10638;BME280;47007;49.252;8.904;2022-08-03T07:59:36;99810.25;;;29.27;59.96
10638;BME280;47007;49.252;8.904;2022-08-03T08:02:25;99789.09;;;29.46;58.18
10638;BME280;47007;49.252;8.904;2022-08-03T08:04:52;99775.00;;;29.53;57.15
10638;BME280;47007;49.252;8.904;2022-08-03T08:07:18;99790.94;;;29.82;56.61
10638;BME280;47007;49.252;8.904;2022-08-03T08:09:46;99786.38;;;29.91;55.16
10638;BME280;47007;49.252;8.904;2022-08-03T08:12:12;99785.97;;;29.84;54.95
10638;BME280;47007;49.252;8.904;2022-08-03T08:14:41;99758.63;;;29.75;55.40
10638;BME280;47007;49.252;8.904;2022-08-03T08:17:11;99785.31;;;30.00;55.32
10638;BME280;47007;49.252;8.904;2022-08-03T08:19:38;99781.41;;;30.15;54.60
10638;BME280;47007;49.252;8.904;2022-08-03T08:22:12;99778.50;;;30.20;54.29
10638;BME280;47007;49.252;8.904;2022-08-03T08:24:40;99779.91;;;30.09;55.17
10638;BME280;47007;49.252;8.904;2022-08-03T08:27:10;99779.94;;;30.49;55.12
10638;BME280;47007;49.252;8.904;2022-08-03T08:29:37;99773.34;;;30.98;54.86
10638;BME280;47007;49.252;8.904;2022-08-03T08:32:20;99773.41;;;31.50;52.45
10638;BME280;47007;49.252;8.904;2022-08-03T08:34:47;99780.97;;;31.70;52.02
10638;BME280;47007;49.252;8.904;2022-08-03T08:37:14;99778.41;;;31.73;51.27
10638;BME280;47007;49.252;8.904;2022-08-03T08:39:40;99780.47;;;31.33;51.72
10638;BME280;47007;49.252;8.904;2022-08-03T08:42:09;99758.41;;;31.47;52.81
10638;BME280;47007;49.252;8.904;2022-08-03T08:44:56;99770.59;;;32.10;51.91
10638;BME280;47007;49.252;8.904;2022-08-03T08:47:30;99765.31;;;32.43;50.63
10638;BME280;47007;49.252;8.904;2022-08-03T08:50:18;99770.53;;;32.74;48.97
10638;BME280;47007;49.252;8.904;2022-08-03T08:52:54;99769.78;;;32.18;49.27
10638;BME280;47007;49.252;8.904;2022-08-03T08:55:22;99764.13;;;32.06;48.44
10638;BME280;47007;49.252;8.904;2022-08-03T08:57:52;99768.00;;;32.05;49.11
10638;BME280;47007;49.252;8.904;2022-08-03T09:00:20;99762.97;;;32.62;48.72
10638;BME280;47007;49.252;8.904;2022-08-03T09:02:47;99762.41;;;32.77;47.44
10638;BME280;47007;49.252;8.904;2022-08-03T09:05:18;99760.25;;;32.54;48.45
10638;BME280;47007;49.252;8.904;2022-08-03T09:08:04;99761.91;;;32.84;48.23
10638;BME280;47007;49.252;8.904;2022-08-03T09:10:32;99756.38;;;33.13;47.50
10638;BME280;47007;49.252;8.904;2022-08-03T09:13:00;99747.81;;;33.36;47.08
10638;BME280;47007;49.252;8.904;2022-08-03T09:15:30;99751.25;;;33.86;46.19
10638;BME280;47007;49.252;8.904;2022-08-03T09:17:59;99744.22;;;34.22;43.69
10638;BME280;47007;49.252;8.904;2022-08-03T09:20:31;99738.69;;;34.22;44.38
10638;BME280;47007;49.252;8.904;2022-08-03T09:25:56;99747.28;;;34.20;43.34
10638;BME280;47007;49.252;8.904;2022-08-03T09:28:33;99729.97;;;34.20;43.59
10638;BME280;47007;49.252;8.904;2022-08-03T09:31:35;99754.56;;;34.62;42.59
10638;BME280;47007;49.252;8.904;2022-08-03T09:34:07;99746.66;;;34.36;41.43
10638;BME280;47007;49.252;8.904;2022-08-03T09:39:14;99744.38;;;33.60;43.25
10638;BME280;47007;49.252;8.904;2022-08-03T09:41:47;99739.84;;;34.21;43.37
10638;BME280;47007;49.252;8.904;2022-08-03T09:44:14;99738.03;;;34.98;43.29
10638;BME280;47007;49.252;8.904;2022-08-03T09:46:53;99739.31;;;35.28;41.91
10638;BME280;47007;49.252;8.904;2022-08-03T09:49:21;99707.81;;;35.42;41.33
10638;BME280;47007;49.252;8.904;2022-08-03T09:51:48;99738.25;;;35.45;41.45
10638;BME280;47007;49.252;8.904;2022-08-03T09:54:35;99728.31;;;35.84;40.73
10638;BME280;47007;49.252;8.904;2022-08-03T09:57:03;99734.97;;;36.15;40.30
10638;BME280;47007;49.252;8.904;2022-08-03T09:59:31;99718.56;;;36.34;40.26
10638;BME280;47007;49.252;8.904;2022-08-03T10:01:59;99731.53;;;36.18;39.03
10638;BME280;47007;49.252;8.904;2022-08-03T10:04:26;99716.81;;;35.54;40.52
10638;BME280;47007;49.252;8.904;2022-08-03T10:07:07;99717.75;;;35.31;41.54
10638;BME280;47007;49.252;8.904;2022-08-03T10:09:35;99719.41;;;35.63;40.79
10638;BME280;47007;49.252;8.904;2022-08-03T10:12:10;99705.63;;;35.63;40.58
10638;BME280;47007;49.252;8.904;2022-08-03T10:14:39;99720.13;;;36.04;41.01
10638;BME280;47007;49.252;8.904;2022-08-03T10:17:08;99720.47;;;36.49;39.75
10638;BME280;47007;49.252;8.904;2022-08-03T10:19:35;99706.13;;;36.59;39.05
10638;BME280;47007;49.252;8.904;2022-08-03T10:22:06;99700.44;;;36.52;38.82
10638;BME280;47007;49.252;8.904;2022-08-03T10:24:36;99706.63;;;36.65;39.14
10638;BME280;47007;49.252;8.904;2022-08-03T10:27:05;99705.28;;;36.24;38.87
10638;BME280;47007;49.252;8.904;2022-08-03T10:29:37;99693.66;;;35.71;40.21
10638;BME280;47007;49.252;8.904;2022-08-03T10:32:14;99693.50;;;35.52;39.77
10638;BME280;47007;49.252;8.904;2022-08-03T10:34:45;99703.78;;;34.99;40.82
10638;BME280;47007;49.252;8.904;2022-08-03T10:37:14;99693.50;;;34.96;40.89
10638;BME280;47007;49.252;8.904;2022-08-03T10:39:43;99693.72;;;35.59;40.56
10638;BME280;47007;49.252;8.904;2022-08-03T10:42:22;99671.19;;;36.32;39.18
10638;BME280;47007;49.252;8.904;2022-08-03T10:45:35;99676.53;;;36.95;38.09
10638;BME280;47007;49.252;8.904;2022-08-03T10:47:42;99683.53;;;37.08;37.47
10638;BME280;47007;49.252;8.904;2022-08-03T10:50:10;99685.25;;;36.78;37.31
10638;BME280;47007;49.252;8.904;2022-08-03T10:53:01;99662.59;;;36.37;38.72
10638;BME280;47007;49.252;8.904;2022-08-03T11:02:00;99673.47;;;37.00;38.26
10638;BME280;47007;49.252;8.904;2022-08-03T11:04:27;99671.59;;;37.23;37.00
10638;BME280;47007;49.252;8.904;2022-08-03T11:09:46;99652.56;;;36.13;37.61
10638;BME280;47007;49.252;8.904;2022-08-03T11:12:31;99676.41;;;36.37;38.22
10638;BME280;47007;49.252;8.904;2022-08-03T11:15:02;99655.59;;;36.94;37.05
10638;BME280;47007;49.252;8.904;2022-08-03T11:17:32;99664.59;;;37.49;36.58
10638;BME280;47007;49.252;8.904;2022-08-03T11:23:44;99659.16;;;37.75;35.90
10638;BME280;47007;49.252;8.904;2022-08-03T11:26:31;99651.56;;;37.49;35.88
10638;BME280;47007;49.252;8.904;2022-08-03T11:29:29;99645.84;;;37.00;36.24
10638;BME280;47007;49.252;8.904;2022-08-03T11:35:13;99640.84;;;36.51;36.54
10638;BME280;47007;49.252;8.904;2022-08-03T11:46:05;99641.34;;;37.95;34.50
10638;BME280;47007;49.252;8.904;2022-08-03T11:51:00;99637.84;;;37.75;34.47
10638;BME280;47007;49.252;8.904;2022-08-03T11:53:27;99638.41;;;37.43;34.69
10638;BME280;47007;49.252;8.904;2022-08-03T11:55:57;99635.06;;;37.75;34.58
10638;BME280;47007;49.252;8.904;2022-08-03T11:58:25;99631.84;;;37.51;33.72
10638;BME280;47007;49.252;8.904;2022-08-03T12:01:22;99626.94;;;37.02;33.34
10638;BME280;47007;49.252;8.904;2022-08-03T12:03:50;99618.50;;;37.14;34.21
10638;BME280;47007;49.252;8.904;2022-08-03T12:06:18;99616.56;;;37.57;33.63
10638;BME280;47007;49.252;8.904;2022-08-03T12:08:45;99606.22;;;37.54;33.03
10638;BME280;47007;49.252;8.904;2022-08-03T12:11:16;99617.84;;;37.63;33.41
10638;BME280;47007;49.252;8.904;2022-08-03T12:13:46;99614.06;;;37.29;32.82
10638;BME280;47007;49.252;8.904;2022-08-03T12:16:34;99607.94;;;37.39;33.34
10638;BME280;47007;49.252;8.904;2022-08-03T12:19:03;99625.06;;;37.67;33.03
10638;BME280;47007;49.252;8.904;2022-08-03T12:21:30;99615.03;;;37.82;33.17
10638;BME280;47007;49.252;8.904;2022-08-03T12:24:02;99593.69;;;37.83;32.44
10638;BME280;47007;49.252;8.904;2022-08-03T12:26:42;99603.50;;;38.03;32.61
10638;BME280;47007;49.252;8.904;2022-08-03T12:29:21;99602.09;;;38.13;32.12
10638;BME280;47007;49.252;8.904;2022-08-03T12:31:48;99602.44;;;38.11;31.91
10638;BME280;47007;49.252;8.904;2022-08-03T12:34:15;99598.28;;;37.52;32.39
10638;BME280;47007;49.252;8.904;2022-08-03T12:36:53;99599.09;;;37.53;33.08
10638;BME280;47007;49.252;8.904;2022-08-03T12:39:23;99597.41;;;37.67;32.39
10638;BME280;47007;49.252;8.904;2022-08-03T12:41:54;99597.50;;;37.74;32.33
10638;BME280;47007;49.252;8.904;2022-08-03T12:44:32;99583.66;;;37.29;32.92
10638;BME280;47007;49.252;8.904;2022-08-03T12:47:01;99593.34;;;37.00;32.38
10638;BME280;47007;49.252;8.904;2022-08-03T12:49:43;99597.44;;;36.87;32.19
10638;BME280;47007;49.252;8.904;2022-08-03T12:52:11;99569.34;;;37.04;32.46
10638;BME280;47007;49.252;8.904;2022-08-03T12:54:38;99581.81;;;37.59;31.60
10638;BME280;47007;49.252;8.904;2022-08-03T12:57:07;99581.06;;;37.85;31.60
10638;BME280;47007;49.252;8.904;2022-08-03T12:59:44;99572.81;;;38.12;31.88
10638;BME280;47007;49.252;8.904;2022-08-03T13:02:21;99584.00;;;38.49;31.07
10638;BME280;47007;49.252;8.904;2022-08-03T13:04:51;99580.78;;;38.43;31.70
10638;BME280;47007;49.252;8.904;2022-08-03T13:07:18;99579.06;;;38.35;31.91
10638;BME280;47007;49.252;8.904;2022-08-03T13:12:19;99585.63;;;37.51;32.42
10638;BME280;47007;49.252;8.904;2022-08-03T13:14:52;99576.19;;;37.75;32.07
10638;BME280;47007;49.252;8.904;2022-08-03T13:17:20;99578.00;;;37.22;32.47
10638;BME280;47007;49.252;8.904;2022-08-03T13:19:48;99572.72;;;36.94;32.25
10638;BME280;47007;49.252;8.904;2022-08-03T13:22:17;99567.31;;;37.01;32.79
10638;BME280;47007;49.252;8.904;2022-08-03T13:24:46;99579.22;;;37.66;32.62
10638;BME280;47007;49.252;8.904;2022-08-03T13:27:13;99581.34;;;38.03;32.10
10638;BME280;47007;49.252;8.904;2022-08-03T13:30:00;99564.69;;;37.73;32.42
10638;BME280;47007;49.252;8.904;2022-08-03T13:32:27;99566.03;;;37.37;33.03
10638;BME280;47007;49.252;8.904;2022-08-03T13:34:53;99558.25;;;37.43;32.64
10638;BME280;47007;49.252;8.904;2022-08-03T13:37:20;99555.81;;;37.87;32.33
10638;BME280;47007;49.252;8.904;2022-08-03T13:39:47;99567.03;;;37.97;31.72
10638;BME280;47007;49.252;8.904;2022-08-03T13:42:27;99564.84;;;37.38;32.19
10638;BME280;47007;49.252;8.904;2022-08-03T13:44:55;99563.63;;;37.35;32.24
10638;BME280;47007;49.252;8.904;2022-08-03T13:47:21;99490.34;;;37.22;32.33
10638;BME280;47007;49.252;8.904;2022-08-03T13:49:48;99559.88;;;37.93;31.86
10638;BME280;47007;49.252;8.904;2022-08-03T13:52:32;99554.91;;;38.05;31.46
10638;BME280;47007;49.252;8.904;2022-08-03T13:55:04;99555.59;;;37.99;31.20
10638;BME280;47007;49.252;8.904;2022-08-03T13:57:31;99507.22;;;37.63;31.60
10638;BME280;47007;49.252;8.904;2022-08-03T14:00:18;99550.75;;;37.66;32.29
10638;BME280;47007;49.252;8.904;2022-08-03T14:02:59;99548.88;;;37.51;32.91
10638;BME280;47007;49.252;8.904;2022-08-03T14:05:42;99543.09;;;37.59;33.00
10638;BME280;47007;49.252;8.904;2022-08-03T14:08:10;99519.66;;;37.27;32.71
10638;BME280;47007;49.252;8.904;2022-08-03T14:10:42;99534.59;;;37.03;32.93